createdAt,value
2018-08-03T00:00:53.052Z,48.70
2018-08-03T00:05:58.938Z,49.31
2018-08-03T00:11:02.872Z,49.55
2018-08-03T00:16:06.643Z,49.18
2018-08-03T00:21:10.667Z,49.08
2018-08-03T00:26:14.460Z,49.96
2018-08-03T00:31:19.786Z,49.12
2018-08-03T00:36:23.623Z,49.30
2018-08-03T00:41:27.420Z,49.55
2018-08-03T00:46:31.692Z,48.87
2018-08-03T00:51:35.600Z,48.37
2018-08-03T00:56:39.389Z,49.44
2018-08-03T01:01:43.153Z,49.62
2018-08-03T01:06:47.113Z,49.56
2018-08-03T01:11:51.351Z,49.61
2018-08-03T01:16:55.165Z,49.64
2018-08-03T01:21:58.947Z,49.66
2018-08-03T01:27:02.813Z,49.63
2018-08-03T01:32:06.735Z,50.01
2018-08-03T01:37:10.610Z,49.37
2018-08-03T01:42:14.390Z,49.41
2018-08-03T01:47:18.553Z,49.97
2018-08-03T01:52:24.668Z,50.07
2018-08-03T01:57:33.512Z,49.60
2018-08-03T02:02:37.458Z,48.93
2018-08-03T02:07:41.268Z,49.63
2018-08-03T02:12:45.402Z,49.56
2018-08-03T02:17:49.164Z,49.58
2018-08-03T02:22:52.918Z,50.25
2018-08-03T02:27:56.679Z,49.91
2018-08-03T02:33:00.559Z,49.16
2018-08-03T02:38:04.494Z,49.01
2018-08-03T02:59:30.979Z,49.09
2018-08-03T03:04:34.930Z,49.94
2018-08-03T03:09:38.802Z,49.38
2018-08-03T03:14:42.686Z,49.42
2018-08-03T03:19:46.508Z,48.68
2018-08-03T03:24:50.942Z,47.67
2018-08-03T03:29:54.814Z,47.13
2018-08-03T03:34:58.689Z,46.68
2018-08-03T03:40:03.944Z,46.44
2018-08-03T03:45:08.058Z,46.38
2018-08-03T03:50:11.764Z,45.21
2018-08-03T03:55:17.256Z,46.67
2018-08-03T04:00:21.095Z,46.03
2018-08-03T04:05:24.808Z,46.11
2018-08-03T04:10:28.543Z,46.04
2018-08-03T04:15:32.345Z,48.51
2018-08-03T04:20:35.970Z,50.01
2018-08-03T04:25:39.657Z,50.54
2018-08-03T04:30:43.614Z,51.32
2018-08-03T04:35:47.263Z,49.30
2018-08-03T04:40:50.917Z,48.82
2018-08-03T04:45:54.633Z,49.40
2018-08-03T04:50:58.318Z,47.44
2018-08-03T04:56:02.622Z,47.67
2018-08-03T05:01:06.311Z,48.06
2018-08-03T05:06:10.039Z,48.07
2018-08-03T05:11:13.734Z,47.92
2018-08-03T05:16:17.426Z,47.76
2018-08-03T05:21:21.214Z,47.43
2018-08-03T05:26:25.297Z,46.80
2018-08-03T05:31:28.984Z,47.00
2018-08-03T05:36:32.682Z,46.64
2018-08-03T05:41:36.464Z,46.60
2018-08-03T05:46:40.126Z,46.18
2018-08-03T05:51:43.792Z,45.93
2018-08-03T05:56:47.511Z,46.28
2018-08-03T06:01:51.194Z,46.56
2018-08-03T06:06:55.177Z,46.65
2018-08-03T06:11:58.874Z,46.77
2018-08-03T06:17:02.671Z,46.64
2018-08-03T06:22:06.439Z,47.17
2018-08-03T06:27:10.247Z,47.25
2018-08-03T06:32:13.854Z,48.10
2018-08-03T06:37:17.609Z,47.63
2018-08-03T06:42:21.315Z,47.88
2018-08-03T06:47:24.979Z,48.17
2018-08-03T06:52:29.084Z,48.37
2018-08-03T06:57:32.937Z,48.15
2018-08-03T07:02:36.746Z,47.86
2018-08-03T07:07:40.401Z,48.07
2018-08-03T07:12:44.041Z,47.96
2018-08-03T07:17:47.771Z,47.74
2018-08-03T07:22:51.484Z,47.78
2018-08-03T07:27:55.246Z,47.51
2018-08-03T07:32:58.950Z,47.37
2018-08-03T07:38:02.670Z,47.57
2018-08-03T07:43:06.353Z,47.89
2018-08-03T07:48:10.030Z,47.68
2018-08-03T07:53:13.723Z,47.30
2018-08-03T07:58:17.355Z,47.77
2018-08-03T08:03:21.117Z,47.57
2018-08-03T08:08:24.749Z,47.77
2018-08-03T08:13:28.475Z,47.70
2018-08-03T08:18:33.207Z,47.31
2018-08-03T08:23:36.960Z,46.93
2018-08-03T08:28:40.851Z,46.80
2018-08-03T08:33:44.618Z,47.44
2018-08-03T08:38:48.414Z,47.25
2018-08-03T08:43:53.258Z,47.56
2018-08-03T08:48:57.970Z,47.20
2018-08-03T08:54:01.755Z,47.11
2018-08-03T08:59:05.446Z,47.92
2018-08-03T09:04:10.121Z,48.01
2018-08-03T09:09:13.837Z,48.34
2018-08-03T09:14:17.518Z,47.86
2018-08-03T09:19:22.010Z,48.77
2018-08-03T09:24:25.683Z,49.12
2018-08-03T09:29:29.417Z,49.14
2018-08-03T09:34:33.118Z,48.88
2018-08-03T09:39:36.900Z,48.80
2018-08-03T09:44:41.067Z,48.79
2018-08-03T09:49:44.803Z,49.27
2018-08-03T09:54:48.552Z,49.56
2018-08-03T09:59:52.247Z,49.62
2018-08-03T10:04:55.888Z,49.72
2018-08-03T10:09:59.701Z,49.28
2018-08-03T10:15:05.689Z,48.95
2018-08-03T10:20:09.696Z,49.61
2018-08-03T10:25:13.406Z,50.18
2018-08-03T10:30:17.245Z,50.31
2018-08-03T10:35:20.938Z,50.24
2018-08-03T10:40:24.638Z,50.51
2018-08-03T10:45:28.282Z,51.19
2018-08-03T10:50:31.963Z,50.83
2018-08-03T10:55:35.631Z,51.50
2018-08-03T11:00:39.342Z,51.71
2018-08-03T11:05:43.083Z,51.35
2018-08-03T11:10:46.724Z,52.03
2018-08-03T11:15:50.374Z,52.09
2018-08-03T11:20:54.758Z,51.90
2018-08-03T11:25:58.721Z,51.39
2018-08-03T11:31:03.623Z,51.32
2018-08-03T11:36:07.703Z,51.64
2018-08-03T11:41:11.412Z,51.11
2018-08-03T11:46:15.138Z,50.97
2018-08-03T11:51:19.346Z,51.57
2018-08-03T11:56:23.012Z,51.32
2018-08-03T12:01:26.707Z,51.64
2018-08-03T12:06:30.500Z,51.93
2018-08-03T12:11:34.262Z,51.75
2018-08-03T12:16:37.989Z,51.65
2018-08-03T12:21:42.310Z,51.44
2018-08-03T12:26:46.033Z,51.48
2018-08-03T12:31:50.075Z,51.29
2018-08-03T12:36:54.899Z,51.23
2018-08-03T12:41:58.836Z,51.34
2018-08-03T12:47:02.760Z,51.30
2018-08-03T12:52:07.102Z,51.46
2018-08-03T12:57:11.103Z,50.99
2018-08-03T13:02:14.978Z,50.95
2018-08-03T13:07:19.982Z,51.45
2018-08-03T13:12:23.615Z,51.11
2018-08-03T13:17:28.405Z,51.27
2018-08-03T13:22:32.190Z,50.86
2018-08-03T13:27:35.944Z,51.24
2018-08-03T13:32:39.761Z,50.90
2018-08-03T13:37:44.098Z,51.13
2018-08-03T13:42:48.198Z,50.63
2018-08-03T13:47:52.225Z,51.09
2018-08-03T13:52:56.123Z,51.16
2018-08-03T13:58:00.676Z,51.12
2018-08-03T14:03:04.488Z,50.86
2018-08-03T14:08:08.342Z,51.10
2018-08-03T14:13:11.998Z,50.92
2018-08-03T14:18:15.698Z,51.00
2018-08-03T14:23:19.513Z,51.07
2018-08-03T14:28:23.174Z,50.81
2018-08-03T14:33:27.077Z,51.43
2018-08-03T14:38:30.771Z,51.05
2018-08-03T14:43:34.414Z,51.17
2018-08-03T14:48:38.160Z,51.18
2018-08-03T14:53:41.898Z,51.19
2018-08-03T14:58:45.494Z,50.96
2018-08-03T15:03:53.205Z,50.98
2018-08-03T15:08:57.281Z,51.03
2018-08-03T15:14:00.978Z,50.75
2018-08-03T15:19:04.908Z,51.05
2018-08-03T15:24:08.712Z,51.20
2018-08-03T15:29:18.675Z,51.48
2018-08-03T15:34:23.917Z,51.09
2018-08-03T15:39:27.710Z,51.02
2018-08-03T15:44:31.568Z,50.87
2018-08-03T15:49:35.345Z,51.18
2018-08-03T15:54:39.102Z,50.95
2018-08-03T15:59:42.770Z,50.92
2018-08-03T16:04:46.499Z,50.79
2018-08-03T16:09:50.098Z,50.85
2018-08-03T16:14:54.369Z,50.87
2018-08-03T16:19:58.180Z,51.12
2018-08-03T16:25:04.732Z,50.49
2018-08-03T16:30:09.802Z,50.48
2018-08-03T16:35:13.670Z,50.83
2018-08-03T16:40:17.561Z,50.75
2018-08-03T16:45:21.156Z,50.52
2018-08-03T16:50:24.878Z,50.74
2018-08-03T16:55:28.674Z,50.28
2018-08-03T17:00:32.497Z,50.48
2018-08-03T17:05:36.332Z,50.21
2018-08-03T17:10:40.074Z,49.59
2018-08-03T17:15:43.903Z,50.09
2018-08-03T17:20:47.790Z,50.41
2018-08-03T17:25:51.664Z,50.81
2018-08-03T17:30:55.313Z,50.28
2018-08-03T17:35:59.011Z,50.40
2018-08-03T17:41:04.526Z,50.46
2018-08-03T17:46:08.377Z,50.58
2018-08-03T17:51:12.055Z,50.81
2018-08-03T17:56:16.059Z,50.34
2018-08-03T18:01:19.732Z,50.12
2018-08-03T18:06:23.562Z,50.38
2018-08-03T18:11:27.250Z,50.34
2018-08-03T18:16:30.909Z,50.88
2018-08-03T18:21:35.174Z,50.66
2018-08-03T18:26:38.983Z,50.60
2018-08-03T18:31:42.650Z,50.56
2018-08-03T18:36:46.353Z,50.97
2018-08-03T18:41:50.287Z,50.79
2018-08-03T18:46:54.332Z,50.90
2018-08-03T18:51:58.136Z,50.65
2018-08-03T18:57:02.393Z,50.93
2018-08-03T19:02:07.038Z,50.87
2018-08-03T19:07:10.961Z,50.65
2018-08-03T19:12:14.676Z,50.76
2018-08-03T19:17:18.379Z,50.93
2018-08-03T19:22:22.039Z,51.03
2018-08-03T19:27:25.815Z,50.84
2018-08-03T19:32:29.689Z,50.85
2018-08-03T19:37:33.674Z,51.05
2018-08-03T19:42:37.841Z,51.42
2018-08-03T19:47:41.737Z,51.22
2018-08-03T19:52:45.614Z,51.23
2018-08-03T19:57:49.299Z,51.20
2018-08-03T20:02:53.671Z,51.64
2018-08-03T20:07:57.994Z,51.36
2018-08-03T20:13:01.685Z,50.83
2018-08-03T20:18:05.371Z,50.23
2018-08-03T20:23:09.073Z,50.43
2018-08-03T20:28:12.921Z,50.44
2018-08-03T20:33:16.622Z,50.32
2018-08-03T20:38:20.305Z,50.87
2018-08-03T20:43:23.961Z,50.54
2018-08-03T20:48:27.620Z,50.77
2018-08-03T20:53:31.434Z,50.40
2018-08-03T20:58:35.104Z,50.43
2018-08-03T21:03:39.521Z,50.24
2018-08-03T21:08:43.964Z,49.72
2018-08-03T21:13:48.265Z,49.86
2018-08-03T21:18:52.080Z,49.65
2018-08-03T21:23:55.772Z,47.57
2018-08-03T21:29:00.557Z,46.55
2018-08-03T21:34:04.237Z,47.69
2018-08-03T21:39:10.603Z,48.61
2018-08-03T21:44:14.389Z,48.79
2018-08-03T21:49:18.127Z,48.94
2018-08-03T21:54:22.311Z,48.86
2018-08-03T21:59:26.167Z,48.76
2018-08-03T22:04:30.013Z,49.48
2018-08-03T22:09:33.706Z,49.26
2018-08-03T22:14:37.480Z,48.62
2018-08-03T22:19:41.186Z,48.85
2018-08-03T22:24:44.914Z,48.91
2018-08-03T22:29:48.630Z,48.72
2018-08-03T22:34:52.293Z,48.78
2018-08-03T22:39:56.987Z,48.45
2018-08-03T22:45:03.252Z,48.17
2018-08-03T23:10:36.135Z,48.40
2018-08-03T23:15:40.821Z,48.17
2018-08-03T23:20:44.533Z,47.84
2018-08-03T23:25:48.276Z,48.05
2018-08-03T23:30:51.934Z,47.71
2018-08-03T23:35:55.654Z,47.24
2018-08-03T23:40:59.397Z,47.78
2018-08-03T23:46:03.074Z,47.85
2018-08-03T23:51:06.787Z,47.03
2018-08-03T23:56:10.450Z,47.66
